Time;durP1;ratioP1;P1;durP2;ratioP2;P2;SDS_P1;SDS_P2;PMS_P1;PMS_P2;Temp;Humidity;BMP_temperature;BMP_pressure;BME280_temperature;BME280_humidity;BME280_pressure;Samples;Min_cycle;Max_cycle;Signal;HPM_P1;HPM_P2
2021/04/27 00:00:31;;;;;;;10.90;6.85;;;25.70;67.30;;;;;;5014275;28;20025;-85
2021/04/27 00:03:00;;;;;;;9.68;6.25;;;26.10;67.40;;;;;;5015125;28;20041;-84
2021/04/27 00:05:29;;;;;;;8.35;7.32;;;26.50;65.50;;;;;;5011988;28;20030;-85
2021/04/27 00:07:56;;;;;;;9.63;6.65;;;26.60;65.40;;;;;;5011830;28;20029;-85
2021/04/27 00:10:23;;;;;;;8.35;6.95;;;26.50;65.90;;;;;;5007914;28;20037;-82
2021/04/27 00:12:54;;;;;;;11.77;6.40;;;26.40;62.80;;;;;;5008975;28;20084;-84
2021/04/27 00:15:24;;;;;;;6.65;5.28;;;26.50;64.40;;;;;;5009012;28;20034;-84
2021/04/27 00:17:53;;;;;;;9.35;6.45;;;26.80;64.50;;;;;;5008074;28;20033;-81
2021/04/27 00:20:23;;;;;;;9.60;6.88;;;26.80;62.00;;;;;;5010134;28;20587;-81
2021/04/27 00:22:52;;;;;;;15.18;6.53;;;26.80;62.30;;;;;;5010475;28;20037;-84
2021/04/27 00:25:20;;;;;;;13.73;7.82;;;26.60;62.70;;;;;;5011873;28;20088;-84
2021/04/27 00:27:51;;;;;;;8.50;6.72;;;26.20;63.50;;;;;;5014162;28;20022;-84
2021/04/27 00:30:24;;;;;;;10.65;8.45;;;26.30;64.80;;;;;;5009387;28;20041;-82
2021/04/27 00:32:52;;;;;;;13.32;9.48;;;26.70;62.70;;;;;;5006581;28;20038;-81
2021/04/27 00:35:20;;;;;;;11.38;7.00;;;27.00;63.70;;;;;;5009153;28;20030;-82
2021/04/27 00:37:48;;;;;;;17.55;9.43;;;27.30;62.60;;;;;;5020136;28;20026;-81
2021/04/27 00:40:18;;;;;;;12.07;8.27;;;27.50;59.80;;;;;;5018477;28;20058;-83
2021/04/27 00:42:49;;;;;;;12.00;6.22;;;26.70;61.60;;;;;;5021653;28;20021;-82
2021/04/27 00:45:24;;;;;;;7.45;6.57;;;26.80;61.20;;;;;;5012668;28;20116;-78
2021/04/27 00:47:54;;;;;;;10.43;6.38;;;26.60;63.10;;;;;;5012716;28;20034;-83
2021/04/27 00:50:34;;;;;;;8.48;6.10;;;27.10;60.40;;;;;;5011829;28;20022;-81
2021/04/27 00:53:04;;;;;;;6.70;5.95;;;26.90;60.50;;;;;;5016274;28;20126;-82
2021/04/27 00:55:32;;;;;;;9.30;6.28;;;26.80;60.80;;;;;;5013269;28;20369;-83
2021/04/27 00:58:00;;;;;;;6.60;6.00;;;26.90;59.10;;;;;;5014574;28;20529;-83
2021/04/27 01:00:30;;;;;;;8.80;5.35;;;27.30;59.40;;;;;;5012317;28;20025;-85
2021/04/27 01:02:59;;;;;;;8.07;5.68;;;27.50;61.00;;;;;;5013406;28;20032;-84
2021/04/27 01:05:30;;;;;;;6.75;6.15;;;28.30;58.90;;;;;;5011225;28;20499;-83
2021/04/27 01:08:29;;;;;;;6.60;5.97;;;28.50;56.20;;;;;;5008950;28;20104;-83
2021/04/27 01:11:07;;;;;;;6.75;5.95;;;28.60;58.40;;;;;;5006082;28;22075;-81
2021/04/27 01:13:56;;;;;;;5.93;5.25;;;28.50;56.00;;;;;;5009061;28;20057;-81
2021/04/27 01:16:26;;;;;;;7.05;6.32;;;29.10;55.00;;;;;;5031418;28;20518;-84
2021/04/27 01:18:55;;;;;;;6.00;5.45;;;28.50;53.70;;;;;;5021435;28;20117;-87
2021/04/27 01:21:28;;;;;;;8.18;6.88;;;28.00;54.80;;;;;;5014828;28;20018;-84
2021/04/27 01:24:36;;;;;;;7.88;6.93;;;28.50;54.80;;;;;;5020685;28;20022;-84
2021/04/27 01:27:04;;;;;;;8.98;7.20;;;28.40;55.20;;;;;;5011569;28;20022;-84
2021/04/27 01:29:34;;;;;;;7.80;5.88;;;28.20;56.40;;;;;;5009482;28;20053;-81
2021/04/27 01:32:04;;;;;;;9.25;6.88;;;28.70;57.30;;;;;;5008768;28;20037;-82
2021/04/27 01:34:39;;;;;;;6.55;5.85;;;28.90;53.50;;;;;;5013387;28;20037;-82
2021/04/27 01:37:11;;;;;;;6.18;5.05;;;28.60;51.70;;;;;;5012828;28;20029;-83
2021/04/27 01:39:39;;;;;;;7.07;6.13;;;28.50;50.60;;;;;;5017774;28;20037;-84
2021/04/27 01:42:08;;;;;;;7.03;5.53;;;28.80;52.10;;;;;;5010549;28;20042;-85
2021/04/27 01:44:38;;;;;;;5.78;5.28;;;28.50;50.80;;;;;;5007312;28;20144;-85
2021/04/27 01:47:07;;;;;;;8.77;5.10;;;28.00;52.00;;;;;;5010126;28;20073;-85
2021/04/27 01:49:42;;;;;;;7.18;5.75;;;28.20;50.60;;;;;;5014993;28;20104;-85
2021/04/27 01:52:12;;;;;;;7.80;5.25;;;28.30;51.70;;;;;;5009275;28;20037;-86
2021/04/27 01:54:42;;;;;;;7.03;5.30;;;28.40;52.00;;;;;;5008245;28;20061;-84
2021/04/27 01:57:13;;;;;;;6.03;5.43;;;28.70;52.40;;;;;;5012538;28;20022;-83
2021/04/27 01:59:41;;;;;;;5.57;5.07;;;28.30;52.10;;;;;;5019759;28;20033;-85
2021/04/27 02:02:08;;;;;;;7.13;4.93;;;27.90;52.40;;;;;;5026370;28;20028;-84
2021/04/27 02:04:35;;;;;;;6.18;5.53;;;27.90;49.70;;;;;;5019668;28;20433;-84
2021/04/27 02:07:06;;;;;;;6.22;5.63;;;27.60;50.30;;;;;;5015918;28;20100;-86
2021/04/27 02:09:34;;;;;;;6.20;5.32;;;27.80;54.10;;;;;;5016091;28;20097;-85
2021/04/27 02:12:02;;;;;;;5.60;5.10;;;28.30;50.70;;;;;;5006614;28;20392;-84
2021/04/27 02:14:30;;;;;;;7.28;4.82;;;28.50;50.40;;;;;;5005923;28;20029;-84
2021/04/27 02:17:14;;;;;;;6.00;4.45;;;28.80;48.60;;;;;;5007096;28;20049;-83
2021/04/27 02:19:44;;;;;;;4.88;4.55;;;28.40;50.00;;;;;;5007565;28;20030;-82
2021/04/27 02:22:13;;;;;;;5.35;4.75;;;28.40;50.30;;;;;;5008757;28;20029;-80
2021/04/27 02:24:41;;;;;;;5.28;4.40;;;28.40;50.00;;;;;;5006690;28;20060;-81
2021/04/27 02:27:15;;;;;;;5.43;4.93;;;28.70;51.20;;;;;;5010481;28;20020;-84
2021/04/27 02:29:43;;;;;;;5.40;4.67;;;28.90;49.80;;;;;;5009210;28;20433;-84
2021/04/27 02:32:13;;;;;;;5.13;3.92;;;29.40;49.10;;;;;;5011317;28;20283;-84
2021/04/27 02:34:42;;;;;;;6.10;4.13;;;29.60;48.10;;;;;;5005183;28;20034;-83
2021/04/27 02:37:11;;;;;;;4.95;4.45;;;29.60;47.00;;;;;;5009298;28;20022;-84
2021/04/27 02:39:38;;;;;;;6.68;5.60;;;28.90;47.40;;;;;;5008512;28;20033;-82
2021/04/27 02:42:06;;;;;;;7.18;4.68;;;28.40;49.30;;;;;;5007101;28;20092;-83
2021/04/27 02:44:34;;;;;;;6.35;5.50;;;28.60;48.90;;;;;;5005582;28;20433;-83
2021/04/27 02:47:03;;;;;;;7.20;4.60;;;29.00;50.20;;;;;;5005902;28;20021;-82
2021/04/27 02:49:32;;;;;;;9.15;5.10;;;29.40;48.90;;;;;;5008500;28;20026;-83
2021/04/27 02:51:59;;;;;;;8.10;4.80;;;29.70;50.40;;;;;;5009371;28;20368;-81
2021/04/27 02:54:26;;;;;;;6.10;4.65;;;29.60;46.80;;;;;;5007743;28;20026;-82
2021/04/27 02:56:54;;;;;;;8.02;5.22;;;29.50;47.00;;;;;;5005281;28;20048;-81
2021/04/27 02:59:21;;;;;;;4.80;4.25;;;28.90;47.40;;;;;;5005192;28;20451;-81
2021/04/27 03:01:48;;;;;;;5.53;4.30;;;28.50;48.60;;;;;;5005782;28;20021;-81
2021/04/27 03:04:16;;;;;;;6.35;5.05;;;28.60;48.30;;;;;;5007330;28;20461;-81
2021/04/27 03:06:43;;;;;;;4.93;4.45;;;28.70;47.50;;;;;;5006029;28;20025;-83
2021/04/27 03:09:11;;;;;;;6.85;4.53;;;29.10;48.00;;;;;;5007774;28;20141;-81
2021/04/27 03:11:38;;;;;;;5.43;4.93;;;29.50;50.90;;;;;;5004789;28;20109;-80
2021/04/27 03:14:07;;;;;;;8.02;5.22;;;29.50;45.80;;;;;;5002122;28;20032;-82
2021/04/27 03:16:38;;;;;;;5.22;4.75;;;28.60;47.80;;;;;;5001561;28;20068;-85
2021/04/27 03:19:05;;;;;;;5.82;5.20;;;28.60;50.10;;;;;;5018288;28;20476;-85
2021/04/27 03:21:33;;;;;;;7.40;5.35;;;28.50;48.70;;;;;;5013451;28;20022;-83
2021/04/27 03:24:00;;;;;;;8.30;5.50;;;27.80;50.10;;;;;;5016308;28;20065;-84
2021/04/27 03:26:28;;;;;;;6.60;5.28;;;27.60;49.20;;;;;;5012079;28;20050;-84
2021/04/27 03:28:56;;;;;;;4.95;4.47;;;28.00;50.40;;;;;;5014642;28;20038;-85
2021/04/27 03:31:23;;;;;;;8.32;5.85;;;28.00;47.30;;;;;;5017761;28;20026;-84
2021/04/27 03:33:51;;;;;;;6.13;5.20;;;28.10;47.60;;;;;;5022139;28;20037;-84
2021/04/27 03:36:18;;;;;;;7.82;5.57;;;27.70;49.60;;;;;;5017815;28;20022;-85
2021/04/27 03:38:45;;;;;;;8.02;4.95;;;27.30;51.30;;;;;;5011788;28;20034;-84
2021/04/27 03:41:14;;;;;;;8.68;4.75;;;27.00;51.30;;;;;;5011821;28;20094;-87
2021/04/27 03:43:41;;;;;;;6.57;5.10;;;26.80;51.40;;;;;;5012859;28;20122;-84
2021/04/27 03:46:09;;;;;;;8.30;4.68;;;26.80;52.00;;;;;;5014293;28;20022;-84
2021/04/27 03:48:37;;;;;;;6.63;4.40;;;26.90;51.00;;;;;;5018736;28;20033;-84
2021/04/27 03:51:06;;;;;;;9.48;5.10;;;26.90;50.80;;;;;;5016917;28;20041;-87
2021/04/27 03:53:34;;;;;;;4.50;4.10;;;26.80;49.80;;;;;;5018822;28;20033;-83
2021/04/27 03:56:02;;;;;;;4.95;4.22;;;26.90;50.00;;;;;;5010883;28;20025;-84
2021/04/27 03:58:30;;;;;;;4.28;3.42;;;27.10;49.40;;;;;;5004782;28;20030;-85
2021/04/27 04:00:58;;;;;;;5.20;4.70;;;26.90;47.80;;;;;;5013207;28;20028;-84
2021/04/27 04:03:27;;;;;;;6.88;4.30;;;26.30;51.10;;;;;;5032379;28;20487;-83
2021/04/27 04:06:02;;;;;;;7.53;5.00;;;26.30;51.50;;;;;;5018568;28;20093;-85
2021/04/27 04:08:30;;;;;;;6.50;5.23;;;26.30;51.80;;;;;;5012672;28;20029;-86
2021/04/27 04:10:57;;;;;;;5.13;4.53;;;26.30;52.00;;;;;;5011530;28;20029;-85
2021/04/27 04:13:24;;;;;;;5.72;4.53;;;26.40;51.70;;;;;;5014657;28;20069;-85
2021/04/27 04:15:52;;;;;;;9.90;4.80;;;26.40;51.30;;;;;;5011507;28;20045;-83
2021/04/27 04:18:21;;;;;;;6.18;4.78;;;26.30;51.60;;;;;;5015084;28;20035;-83
2021/04/27 04:20:50;;;;;;;7.90;5.22;;;26.40;52.00;;;;;;5025548;28;20321;-84
2021/04/27 04:23:19;;;;;;;5.65;4.55;;;26.10;51.50;;;;;;5008290;28;20052;-83
2021/04/27 04:25:46;;;;;;;5.18;4.70;;;26.10;53.40;;;;;;5006367;28;20025;-83
2021/04/27 04:28:15;;;;;;;6.63;4.32;;;25.90;52.20;;;;;;5005031;28;20037;-84
2021/04/27 04:30:46;;;;;;;4.38;3.97;;;26.00;52.90;;;;;;5003856;28;20022;-83
2021/04/27 04:33:13;;;;;;;7.57;4.13;;;25.80;52.00;;;;;;5003763;28;20041;-83
2021/04/27 04:35:41;;;;;;;6.10;4.63;;;25.70;53.00;;;;;;5006985;28;20026;-81
2021/04/27 04:38:10;;;;;;;4.95;4.30;;;25.50;53.10;;;;;;5012173;28;20034;-85
2021/04/27 04:40:37;;;;;;;4.20;3.80;;;25.50;53.10;;;;;;5010542;28;20041;-83
2021/04/27 04:43:06;;;;;;;6.50;4.07;;;25.50;53.30;;;;;;5004048;28;20072;-82
2021/04/27 04:45:33;;;;;;;6.65;4.22;;;25.30;53.50;;;;;;5000815;28;20026;-80
2021/04/27 04:48:00;;;;;;;5.70;3.95;;;25.40;53.50;;;;;;5004721;28;20435;-82
2021/04/27 04:50:28;;;;;;;6.15;3.90;;;25.30;53.80;;;;;;5010414;28;20022;-83
2021/04/27 04:52:55;;;;;;;7.97;4.30;;;25.20;54.10;;;;;;5009267;28;20046;-81
2021/04/27 04:55:23;;;;;;;5.80;3.50;;;25.00;54.40;;;;;;5013803;28;20038;-82
2021/04/27 04:57:52;;;;;;;5.95;3.70;;;25.00;54.50;;;;;;5008523;28;20026;-82
2021/04/27 05:00:21;;;;;;;4.32;3.78;;;25.00;53.10;;;;;;5004949;28;20022;-85
2021/04/27 05:02:48;;;;;;;8.20;3.78;;;24.80;54.50;;;;;;5004965;28;20499;-84
2021/04/27 05:05:17;;;;;;;4.80;3.90;;;24.50;53.50;;;;;;5006364;28;20493;-85
2021/04/27 05:07:57;;;;;;;5.22;3.78;;;24.20;55.20;;;;;;5007594;28;20117;-85
2021/04/27 05:10:26;;;;;;;5.75;3.60;;;24.30;56.00;;;;;;5004793;28;20117;-83
2021/04/27 05:12:55;;;;;;;6.47;3.50;;;24.30;54.20;;;;;;5004241;28;20038;-83
2021/04/27 05:15:23;;;;;;;5.82;3.75;;;24.40;54.30;;;;;;5005111;28;20030;-83
2021/04/27 05:17:50;;;;;;;4.03;3.30;;;24.30;52.80;;;;;;5004652;28;20030;-83
2021/04/27 05:20:18;;;;;;;7.45;3.85;;;24.30;53.50;;;;;;5007489;28;20017;-84
2021/04/27 05:22:47;;;;;;;7.22;3.60;;;24.40;54.20;;;;;;5023423;28;20025;-83
2021/04/27 05:25:15;;;;;;;4.95;3.38;;;24.40;53.60;;;;;;5011032;28;20056;-84
2021/04/27 05:27:43;;;;;;;8.55;3.88;;;24.30;54.70;;;;;;5008748;28;20465;-85
2021/04/27 05:30:11;;;;;;;9.35;4.13;;;24.30;54.80;;;;;;5011656;28;20030;-85
2021/04/27 05:32:40;;;;;;;4.70;4.03;;;24.20;54.40;;;;;;5007645;28;20041;-85
2021/04/27 05:35:10;;;;;;;4.38;3.03;;;24.20;54.40;;;;;;5030705;28;20026;-85
2021/04/27 05:37:39;;;;;;;3.47;3.17;;;24.00;54.20;;;;;;5011816;28;20036;-85
2021/04/27 05:40:08;;;;;;;5.75;3.63;;;24.00;54.80;;;;;;5012658;28;20029;-85
2021/04/27 05:42:35;;;;;;;5.97;4.18;;;24.10;54.80;;;;;;5013241;28;20026;-82
2021/04/27 05:45:05;;;;;;;5.22;4.28;;;24.30;55.20;;;;;;5012620;28;20026;-87
2021/04/27 05:47:32;;;;;;;3.97;3.58;;;24.20;55.40;;;;;;5010440;28;20068;-85
2021/04/27 05:49:59;;;;;;;4.57;3.75;;;24.20;55.00;;;;;;5021299;28;20034;-86
2021/04/27 05:52:27;;;;;;;6.95;3.15;;;24.30;55.20;;;;;;5009228;28;20476;-84
2021/04/27 05:54:55;;;;;;;3.88;3.17;;;24.40;54.80;;;;;;5006138;28;20030;-86
2021/04/27 05:57:22;;;;;;;5.40;3.60;;;24.40;54.90;;;;;;5025214;28;20453;-84
2021/04/27 05:59:52;;;;;;;3.42;3.13;;;24.50;54.60;;;;;;5008133;28;20080;-86
2021/04/27 06:02:21;;;;;;;4.55;3.47;;;24.50;54.40;;;;;;5007242;28;20573;-85
2021/04/27 06:04:48;;;;;;;5.53;3.03;;;24.50;53.40;;;;;;5005785;28;20030;-83
2021/04/27 06:07:16;;;;;;;4.85;3.58;;;24.60;53.50;;;;;;5006980;28;20064;-85
2021/04/27 06:09:43;;;;;;;4.57;3.05;;;24.50;53.50;;;;;;5005111;28;20515;-86
2021/04/27 06:12:10;;;;;;;4.40;3.30;;;24.40;52.90;;;;;;5007396;28;20042;-86
2021/04/27 06:14:38;;;;;;;3.80;3.20;;;24.40;53.30;;;;;;5013075;28;20038;-82
2021/04/27 06:17:06;;;;;;;3.28;2.80;;;24.30;53.50;;;;;;5007829;28;20586;-81
2021/04/27 06:19:34;;;;;;;3.97;3.40;;;24.30;53.60;;;;;;5008780;28;20053;-81
2021/04/27 06:22:01;;;;;;;6.20;2.90;;;24.30;54.90;;;;;;5008528;28;20030;-84
2021/04/27 06:24:29;;;;;;;6.78;3.72;;;24.10;54.80;;;;;;5004523;28;20392;-84
2021/04/27 06:26:56;;;;;;;4.68;3.95;;;24.00;54.60;;;;;;5010859;28;20028;-82
2021/04/27 06:29:24;;;;;;;5.95;4.50;;;23.90;55.40;;;;;;5011049;28;20029;-85
2021/04/27 06:31:51;;;;;;;19.80;17.52;;;23.80;57.40;;;;;;5006475;28;20444;-81
2021/04/27 06:34:18;;;;;;;22.65;18.50;;;23.50;63.00;;;;;;5007926;28;20124;-85
2021/04/27 06:36:46;;;;;;;28.00;21.02;;;23.20;65.30;;;;;;5004089;28;20032;-84
2021/04/27 06:39:15;;;;;;;32.50;21.50;;;22.90;67.60;;;;;;5018534;28;20038;-84
2021/04/27 06:41:42;;;;;;;26.30;21.92;;;22.60;69.00;;;;;;5023189;28;20046;-84
2021/04/27 06:44:10;;;;;;;31.27;23.02;;;22.50;70.20;;;;;;5016166;28;20029;-85
2021/04/27 06:46:37;;;;;;;24.55;21.92;;;22.30;70.90;;;;;;5013194;28;20026;-84
2021/04/27 06:49:04;;;;;;;26.70;21.63;;;22.10;71.70;;;;;;5011203;28;20034;-87
2021/04/27 06:51:32;;;;;;;25.48;21.83;;;22.10;72.30;;;;;;5008704;28;20034;-85
2021/04/27 06:54:00;;;;;;;24.10;21.60;;;22.00;73.00;;;;;;5013079;28;20069;-83
2021/04/27 06:56:27;;;;;;;25.90;20.88;;;21.90;73.70;;;;;;5009438;28;20029;-84
2021/04/27 06:58:55;;;;;;;22.75;19.45;;;21.80;74.10;;;;;;5014029;28;20529;-85
2021/04/27 07:01:23;;;;;;;24.67;20.83;;;21.70;74.60;;;;;;5012530;28;20116;-85
2021/04/27 07:03:51;;;;;;;24.85;21.23;;;21.50;75.20;;;;;;5010577;28;20022;-84
2021/04/27 07:06:18;;;;;;;23.20;20.17;;;21.50;75.80;;;;;;5012478;28;20488;-81
2021/04/27 07:08:45;;;;;;;22.48;20.02;;;21.40;76.10;;;;;;5011195;28;21918;-83
2021/04/27 07:11:13;;;;;;;30.23;20.60;;;21.30;76.50;;;;;;5011102;28;20076;-85
2021/04/27 07:13:40;;;;;;;22.52;20.08;;;21.20;77.00;;;;;;5022838;28;20038;-81
2021/04/27 07:16:11;;;;;;;22.85;20.40;;;21.10;77.30;;;;;;5017856;28;20033;-85
2021/04/27 07:18:39;;;;;;;24.75;21.48;;;21.00;77.70;;;;;;5014036;28;20081;-85
2021/04/27 07:21:06;;;;;;;27.63;21.42;;;20.90;78.00;;;;;;5007587;28;20406;-86
2021/04/27 07:23:34;;;;;;;25.25;19.98;;;20.80;78.10;;;;;;5012452;28;20061;-85
2021/04/27 07:26:03;;;;;;;24.17;20.90;;;20.80;78.50;;;;;;5009059;28;20381;-85
2021/04/27 07:28:30;;;;;;;27.27;20.83;;;20.70;78.70;;;;;;5009333;28;20114;-86
2021/04/27 07:30:58;;;;;;;24.27;19.88;;;20.60;79.20;;;;;;5006392;28;20385;-83
2021/04/27 07:33:25;;;;;;;23.17;20.02;;;20.50;79.30;;;;;;5010975;28;20563;-82
2021/04/27 07:35:54;;;;;;;26.83;20.20;;;20.50;79.70;;;;;;5009241;28;20085;-85
2021/04/27 07:38:21;;;;;;;21.50;18.98;;;20.40;79.90;;;;;;5011620;28;20040;-86
2021/04/27 07:40:49;;;;;;;21.92;18.38;;;20.30;80.20;;;;;;5008992;28;20030;-84
2021/04/27 07:43:17;;;;;;;19.02;16.92;;;20.20;80.70;;;;;;5012514;28;20042;-84
2021/04/27 07:45:44;;;;;;;22.73;17.60;;;20.20;81.50;;;;;;5013034;28;20072;-84
2021/04/27 07:48:12;;;;;;;19.50;14.95;;;20.10;81.40;;;;;;5018451;28;20025;-79
2021/04/27 07:50:39;;;;;;;19.40;15.25;;;20.10;81.60;;;;;;5019923;28;20044;-80
2021/04/27 07:53:08;;;;;;;18.33;15.15;;;20.10;81.90;;;;;;5010368;28;20042;-82
2021/04/27 07:55:36;;;;;;;19.27;15.57;;;20.00;82.10;;;;;;5004394;28;20049;-81
2021/04/27 07:58:04;;;;;;;24.23;15.55;;;19.90;82.60;;;;;;5009994;28;20022;-82
2021/04/27 08:00:32;;;;;;;17.58;14.43;;;19.90;82.90;;;;;;5009008;28;20025;-82
2021/04/27 08:02:59;;;;;;;19.30;15.23;;;19.90;83.20;;;;;;5009661;28;20033;-85
2021/04/27 08:05:27;;;;;;;23.85;16.55;;;19.80;83.40;;;;;;5006797;28;20037;-80
2021/04/27 08:07:55;;;;;;;19.88;15.27;;;19.70;83.70;;;;;;5009866;28;20144;-82
2021/04/27 08:10:23;;;;;;;23.05;16.73;;;19.60;84.10;;;;;;5008262;28;20048;-85
2021/04/27 08:12:52;;;;;;;20.63;15.73;;;19.60;84.10;;;;;;5009438;28;20034;-81
2021/04/27 08:15:26;;;;;;;19.23;15.85;;;19.60;84.50;;;;;;5006711;28;20388;-82
2021/04/27 08:17:55;;;;;;;20.13;15.23;;;19.50;84.80;;;;;;5004115;28;20029;-84
2021/04/27 08:20:22;;;;;;;21.23;15.48;;;19.40;85.80;;;;;;5010443;28;20168;-81
2021/04/27 08:22:50;;;;;;;19.67;14.35;;;19.30;85.80;;;;;;5006884;28;20088;-81
2021/04/27 08:25:18;;;;;;;18.98;15.18;;;19.20;86.20;;;;;;5009136;28;20028;-84
2021/04/27 08:27:47;;;;;;;19.27;13.77;;;19.20;86.40;;;;;;5005068;28;20037;-83
2021/04/27 08:30:16;;;;;;;17.58;13.25;;;19.20;86.60;;;;;;5008274;28;20058;-82
2021/04/27 08:32:44;;;;;;;19.90;14.02;;;19.10;87.00;;;;;;5006676;28;20018;-82
2021/04/27 08:35:12;;;;;;;17.23;13.63;;;19.10;87.10;;;;;;5009549;28;20041;-82
2021/04/27 08:37:40;;;;;;;14.70;13.10;;;19.10;87.20;;;;;;5010100;28;20101;-82
2021/04/27 08:40:09;;;;;;;17.02;13.07;;;19.10;87.20;;;;;;5009296;28;20100;-82
2021/04/27 08:42:38;;;;;;;18.83;12.68;;;19.00;87.50;;;;;;5007700;28;20049;-83
2021/04/27 08:45:09;;;;;;;17.02;12.10;;;19.00;87.90;;;;;;5009962;28;20049;-82
2021/04/27 08:47:37;;;;;;;14.93;12.05;;;18.90;88.00;;;;;;5010305;28;20026;-84
2021/04/27 08:50:07;;;;;;;16.63;14.68;;;18.90;88.30;;;;;;5006865;28;20041;-83
2021/04/27 08:52:34;;;;;;;14.15;12.68;;;18.80;88.40;;;;;;5011241;28;20046;-83
2021/04/27 08:55:04;;;;;;;14.70;12.75;;;18.70;88.80;;;;;;5009852;28;20500;-81
2021/04/27 08:57:32;;;;;;;20.80;16.13;;;18.70;89.10;;;;;;5009891;28;20034;-83
2021/04/27 09:00:01;;;;;;;17.27;14.70;;;18.70;89.40;;;;;;5013883;28;20097;-83
2021/04/27 09:02:31;;;;;;;17.65;15.85;;;18.60;89.40;;;;;;5008581;28;20421;-82
2021/04/27 09:04:59;;;;;;;18.92;14.35;;;18.60;89.50;;;;;;5007965;28;20372;-81
2021/04/27 09:07:29;;;;;;;18.58;14.73;;;18.50;89.80;;;;;;5010631;28;20108;-80
2021/04/27 09:10:00;;;;;;;17.67;15.30;;;18.50;89.70;;;;;;5004796;28;20064;-83
2021/04/27 09:12:32;;;;;;;18.92;14.85;;;18.40;89.70;;;;;;5010332;28;20092;-82
2021/04/27 09:15:01;;;;;;;18.40;14.40;;;18.40;89.90;;;;;;5009574;28;20395;-81
2021/04/27 09:17:30;;;;;;;19.23;15.52;;;18.40;90.00;;;;;;5014988;28;20416;-81
2021/04/27 09:19:59;;;;;;;19.83;16.17;;;18.30;90.20;;;;;;5011613;28;20026;-82
2021/04/27 09:22:30;;;;;;;23.05;17.85;;;18.20;90.50;;;;;;5012816;28;20480;-81
2021/04/27 09:25:01;;;;;;;34.95;25.92;;;18.20;90.40;;;;;;5010320;28;20131;-82
2021/04/27 09:27:44;;;;;;;42.00;26.65;;;18.10;90.40;;;;;;5012124;28;20041;-81
2021/04/27 09:30:22;;;;;;;25.98;21.23;;;18.10;90.60;;;;;;5008315;28;20072;-82
2021/04/27 09:33:06;;;;;;;22.08;17.92;;;18.10;90.60;;;;;;5012288;28;20067;-84
2021/04/27 09:35:43;;;;;;;21.80;16.52;;;18.10;90.70;;;;;;5010557;28;20037;-80
2021/04/27 09:38:18;;;;;;;18.98;14.98;;;18.00;90.80;;;;;;5013035;28;20022;-82
2021/04/27 09:41:03;;;;;;;16.30;12.77;;;18.00;90.90;;;;;;5008068;28;20026;-80
2021/04/27 09:43:45;;;;;;;18.03;14.47;;;18.00;91.20;;;;;;5015034;28;20022;-81
2021/04/27 09:49:36;;;;;;;12.48;10.43;;;17.80;91.50;;;;;;5010674;28;20411;-83
2021/04/27 09:52:13;;;;;;;17.35;10.27;;;17.80;91.70;;;;;;5011493;28;20117;-81
2021/04/27 09:55:07;;;;;;;14.55;9.82;;;17.80;91.80;;;;;;5011234;28;20030;-81
2021/04/27 09:57:47;;;;;;;15.35;9.57;;;17.80;91.80;;;;;;5014352;28;20026;-82
2021/04/27 10:00:32;;;;;;;13.27;9.70;;;17.90;91.80;;;;;;5006569;28;20076;-82
2021/04/27 10:03:13;;;;;;;12.15;9.85;;;17.90;91.90;;;;;;5013716;28;20032;-82
2021/04/27 10:05:44;;;;;;;14.65;10.98;;;17.90;91.70;;;;;;5006848;28;20045;-80
2021/04/27 10:08:15;;;;;;;15.38;10.68;;;18.00;91.80;;;;;;5012563;28;20028;-82
2021/04/27 10:10:43;;;;;;;11.02;9.40;;;18.00;91.90;;;;;;5012460;28;20476;-84
2021/04/27 10:13:11;;;;;;;13.60;10.10;;;18.10;91.80;;;;;;5009204;28;20088;-82
2021/04/27 10:15:41;;;;;;;15.32;11.00;;;18.10;91.80;;;;;;5004989;28;20034;-85
2021/04/27 10:18:11;;;;;;;20.60;10.32;;;18.00;91.90;;;;;;5011555;28;20182;-83
2021/04/27 10:20:39;;;;;;;15.57;10.05;;;18.00;91.90;;;;;;5009611;28;20022;-82
2021/04/27 10:23:09;;;;;;;13.98;9.10;;;18.00;91.90;;;;;;5012000;28;20117;-84
2021/04/27 10:25:39;;;;;;;16.33;9.98;;;18.00;92.00;;;;;;5016906;28;20037;-82
2021/04/27 10:28:12;;;;;;;14.25;9.38;;;18.00;92.00;;;;;;5030631;28;20036;-85
2021/04/27 10:30:47;;;;;;;15.48;9.27;;;17.90;92.00;;;;;;5028536;28;20038;-84
2021/04/27 10:33:31;;;;;;;15.00;8.23;;;17.90;92.00;;;;;;5013171;28;20034;-84
2021/04/27 10:36:10;;;;;;;14.00;9.25;;;17.90;92.00;;;;;;5013047;28;20350;-84
2021/04/27 10:38:50;;;;;;;9.43;8.43;;;17.90;92.20;;;;;;5013378;28;20121;-88
2021/04/27 10:41:25;;;;;;;17.80;9.52;;;17.80;92.20;;;;;;5009185;28;20034;-87
2021/04/27 10:43:58;;;;;;;12.73;8.63;;;17.80;92.20;;;;;;5018458;28;20045;-81
2021/04/27 10:46:26;;;;;;;13.13;9.70;;;17.80;92.30;;;;;;5020455;28;20034;-85
2021/04/27 10:49:18;;;;;;;15.27;9.00;;;17.80;92.40;;;;;;5017940;28;20037;-87
2021/04/27 10:51:47;;;;;;;14.07;8.88;;;17.70;92.50;;;;;;5014648;28;20026;-87
2021/04/27 10:54:22;;;;;;;18.48;9.13;;;17.70;92.40;;;;;;5016822;28;20030;-87
2021/04/27 10:57:06;;;;;;;18.00;9.75;;;17.70;92.30;;;;;;5012881;28;20034;-84
2021/04/27 10:59:55;;;;;;;14.90;10.05;;;17.70;92.40;;;;;;5021123;28;20031;-87
2021/04/27 11:02:29;;;;;;;14.55;9.30;;;17.70;92.40;;;;;;5011941;28;20026;-83
2021/04/27 11:05:02;;;;;;;15.88;11.25;;;17.60;92.50;;;;;;5012589;28;20030;-84
2021/04/27 11:07:34;;;;;;;23.63;12.27;;;17.60;92.50;;;;;;5012095;28;20036;-84
2021/04/27 11:10:05;;;;;;;20.20;12.10;;;17.50;92.80;;;;;;5006646;28;20026;-81
2021/04/27 11:12:33;;;;;;;16.15;11.23;;;17.50;92.60;;;;;;5008361;28;20069;-82
2021/04/27 11:15:02;;;;;;;13.85;11.75;;;17.50;92.80;;;;;;5009426;28;20029;-85
2021/04/27 11:17:35;;;;;;;17.40;13.70;;;17.50;92.90;;;;;;5015379;28;20056;-84
2021/04/27 11:20:07;;;;;;;18.90;12.10;;;17.50;92.90;;;;;;5016137;28;20365;-85
2021/04/27 11:22:50;;;;;;;13.50;11.80;;;17.50;93.00;;;;;;5012085;28;20037;-86
2021/04/27 11:25:34;;;;;;;17.42;13.50;;;17.50;92.90;;;;;;5008578;28;20026;-84
2021/04/27 11:28:04;;;;;;;16.27;11.77;;;17.50;92.80;;;;;;5006959;28;20034;-83
2021/04/27 11:30:36;;;;;;;20.08;12.63;;;17.50;92.90;;;;;;5006126;28;20602;-82
2021/04/27 11:33:07;;;;;;;20.98;12.57;;;17.50;92.90;;;;;;5006668;28;20042;-85
2021/04/27 11:35:44;;;;;;;17.75;11.50;;;17.50;92.90;;;;;;5007260;28;20032;-84
2021/04/27 11:38:12;;;;;;;14.82;13.27;;;17.60;92.90;;;;;;5015103;28;20499;-84
2021/04/27 11:40:42;;;;;;;16.92;12.23;;;17.60;92.90;;;;;;5017850;28;20041;-85
2021/04/27 11:43:13;;;;;;;14.77;12.25;;;17.60;93.10;;;;;;5013031;28;20054;-84
2021/04/27 11:45:45;;;;;;;17.10;11.73;;;17.60;92.90;;;;;;5018881;28;20105;-84
2021/04/27 11:48:15;;;;;;;16.80;11.32;;;17.60;92.90;;;;;;5019829;28;20030;-83
2021/04/27 11:50:43;;;;;;;13.70;11.10;;;17.60;92.90;;;;;;5018273;28;20097;-84
2021/04/27 11:53:18;;;;;;;18.98;11.90;;;17.60;92.90;;;;;;5011501;28;20030;-85
2021/04/27 11:55:57;;;;;;;18.85;12.57;;;17.60;93.00;;;;;;5014162;28;20022;-81
2021/04/27 11:58:35;;;;;;;18.25;11.55;;;17.60;92.90;;;;;;5028610;28;20045;-83
2021/04/27 12:01:09;;;;;;;15.65;11.98;;;17.60;92.90;;;;;;5013963;28;20025;-86
2021/04/27 12:03:47;;;;;;;15.23;11.18;;;17.60;92.90;;;;;;5020310;28;20101;-82
2021/04/27 12:06:17;;;;;;;14.18;11.93;;;17.70;92.80;;;;;;5003411;28;20057;-81
2021/04/27 12:08:48;;;;;;;14.98;11.63;;;17.70;92.80;;;;;;5003733;28;20026;-78
2021/04/27 12:11:18;;;;;;;17.35;11.25;;;17.70;92.80;;;;;;5003865;28;20044;-81
2021/04/27 12:13:53;;;;;;;13.00;11.73;;;17.70;92.80;;;;;;5002389;28;20137;-80
2021/04/27 12:16:29;;;;;;;16.75;12.00;;;17.70;92.70;;;;;;5002665;28;20401;-80
2021/04/27 12:19:07;;;;;;;14.15;12.38;;;17.80;92.60;;;;;;5006001;28;20042;-80
2021/04/27 12:21:45;;;;;;;14.40;11.27;;;17.80;92.60;;;;;;5006113;28;20048;-81
2021/04/27 12:24:22;;;;;;;16.13;10.82;;;17.70;92.60;;;;;;5004569;28;20034;-81
2021/04/27 12:27:07;;;;;;;17.92;10.98;;;17.70;92.80;;;;;;5012680;28;20036;-78
2021/04/27 12:29:52;;;;;;;16.52;12.18;;;17.70;92.70;;;;;;5010848;28;20026;-79
2021/04/27 12:32:30;;;;;;;12.73;11.18;;;17.70;92.70;;;;;;5005249;28;20026;-80
2021/04/27 12:35:09;;;;;;;13.27;11.90;;;17.70;92.70;;;;;;5002057;28;20042;-80
2021/04/27 12:37:43;;;;;;;13.13;11.75;;;17.70;92.60;;;;;;5005715;28;20072;-83
2021/04/27 12:40:24;;;;;;;13.82;12.43;;;17.70;92.60;;;;;;5006694;28;20026;-83
2021/04/27 12:43:02;;;;;;;13.68;12.00;;;17.70;92.70;;;;;;5016124;28;20026;-79
2021/04/27 12:45:42;;;;;;;15.23;11.95;;;17.70;92.70;;;;;;5013082;28;20041;-83
2021/04/27 12:48:13;;;;;;;14.00;12.43;;;17.60;92.70;;;;;;5014442;28;20034;-82
2021/04/27 12:50:57;;;;;;;16.65;13.13;;;17.60;92.70;;;;;;5015319;28;20025;-81
2021/04/27 12:53:37;;;;;;;13.82;12.35;;;17.60;92.80;;;;;;5011844;28;20034;-83
2021/04/27 12:56:17;;;;;;;16.88;13.68;;;17.60;92.90;;;;;;5013089;28;20463;-80
2021/04/27 12:58:48;;;;;;;18.02;14.35;;;17.50;92.90;;;;;;5005626;28;20033;-81